sensor_id;sensor_type;location;lat;lon;timestamp;pressure;altitude;pressure_sealevel;temperature;humidity
21706;BME280;11014;53.076;18.208;2023-08-12T00:00:28;101930.69;;;16.85;59.10
21706;BME280;11014;53.076;18.208;2023-08-12T00:03:16;101926.56;;;16.83;59.42
21706;BME280;11014;53.076;18.208;2023-08-12T00:05:45;101931.88;;;16.78;59.40
21706;BME280;11014;53.076;18.208;2023-08-12T00:08:14;101935.56;;;16.72;59.58
21706;BME280;11014;53.076;18.208;2023-08-12T00:10:42;101941.34;;;16.64;59.71
21706;BME280;11014;53.076;18.208;2023-08-12T00:13:12;101941.56;;;16.62;59.94
21706;BME280;11014;53.076;18.208;2023-08-12T00:15:43;101938.66;;;16.64;59.75
21706;BME280;11014;53.076;18.208;2023-08-12T00:18:12;101929.91;;;16.62;59.71
21706;BME280;11014;53.076;18.208;2023-08-12T00:20:42;101930.47;;;16.52;60.27
21706;BME280;11014;53.076;18.208;2023-08-12T00:23:11;101942.06;;;16.47;60.28
21706;BME280;11014;53.076;18.208;2023-08-12T00:25:39;101937.22;;;16.49;60.35
21706;BME280;11014;53.076;18.208;2023-08-12T00:28:08;101941.56;;;16.50;60.21
21706;BME280;11014;53.076;18.208;2023-08-12T00:30:42;101940.63;;;16.45;60.35
21706;BME280;11014;53.076;18.208;2023-08-12T00:33:11;101942.38;;;16.39;60.16
21706;BME280;11014;53.076;18.208;2023-08-12T00:35:39;101940.75;;;16.38;60.24
21706;BME280;11014;53.076;18.208;2023-08-12T00:38:08;101936.97;;;16.39;60.46
21706;BME280;11014;53.076;18.208;2023-08-12T00:40:37;101935.69;;;16.42;60.22
21706;BME280;11014;53.076;18.208;2023-08-12T00:43:06;101939.81;;;16.44;60.04
21706;BME280;11014;53.076;18.208;2023-08-12T00:45:35;101932.63;;;16.38;60.37
21706;BME280;11014;53.076;18.208;2023-08-12T00:48:05;101940.03;;;16.31;60.44
21706;BME280;11014;53.076;18.208;2023-08-12T00:50:36;101939.69;;;16.28;60.25
21706;BME280;11014;53.076;18.208;2023-08-12T00:53:23;101949.81;;;16.21;60.52
21706;BME280;11014;53.076;18.208;2023-08-12T00:55:52;101946.16;;;16.15;60.67
21706;BME280;11014;53.076;18.208;2023-08-12T00:58:21;101948.28;;;16.13;60.68
21706;BME280;11014;53.076;18.208;2023-08-12T01:00:50;101943.91;;;16.12;60.61
21706;BME280;11014;53.076;18.208;2023-08-12T01:03:19;101950.41;;;16.11;60.51
21706;BME280;11014;53.076;18.208;2023-08-12T01:05:54;101947.59;;;16.06;60.79
21706;BME280;11014;53.076;18.208;2023-08-12T01:08:28;101948.06;;;16.03;61.07
21706;BME280;11014;53.076;18.208;2023-08-12T01:11:26;101951.59;;;16.15;60.84
21706;BME280;11014;53.076;18.208;2023-08-12T01:14:01;101943.34;;;16.10;60.70
21706;BME280;11014;53.076;18.208;2023-08-12T01:16:33;101943.81;;;16.07;60.40
21706;BME280;11014;53.076;18.208;2023-08-12T01:19:05;101936.63;;;16.36;59.95
21706;BME280;11014;53.076;18.208;2023-08-12T01:21:37;101939.59;;;16.11;59.78
21706;BME280;11014;53.076;18.208;2023-08-12T01:24:09;101933.44;;;16.04;60.24
21706;BME280;11014;53.076;18.208;2023-08-12T01:26:37;101928.47;;;16.01;60.33
21706;BME280;11014;53.076;18.208;2023-08-12T01:29:06;101930.59;;;15.99;60.66
21706;BME280;11014;53.076;18.208;2023-08-12T01:31:42;101940.16;;;16.01;60.73
21706;BME280;11014;53.076;18.208;2023-08-12T01:34:26;101926.84;;;16.00;60.49
21706;BME280;11014;53.076;18.208;2023-08-12T01:37:02;101927.41;;;15.90;60.54
21706;BME280;11014;53.076;18.208;2023-08-12T01:39:33;101931.41;;;15.88;60.64
21706;BME280;11014;53.076;18.208;2023-08-12T01:42:04;101923.28;;;15.88;60.58
21706;BME280;11014;53.076;18.208;2023-08-12T01:44:33;101925.53;;;15.91;60.73
21706;BME280;11014;53.076;18.208;2023-08-12T01:47:02;101925.53;;;15.91;60.67
21706;BME280;11014;53.076;18.208;2023-08-12T01:49:31;101920.81;;;15.86;60.73
21706;BME280;11014;53.076;18.208;2023-08-12T01:52:00;101920.81;;;15.86;60.72
21706;BME280;11014;53.076;18.208;2023-08-12T01:54:29;101915.16;;;15.88;60.43
21706;BME280;11014;53.076;18.208;2023-08-12T01:57:05;101920.00;;;15.86;60.73
21706;BME280;11014;53.076;18.208;2023-08-12T01:59:38;101923.41;;;15.81;60.88
21706;BME280;11014;53.076;18.208;2023-08-12T02:02:07;101926.94;;;15.82;60.76
21706;BME280;11014;53.076;18.208;2023-08-12T02:04:36;101911.28;;;15.84;60.83
21706;BME280;11014;53.076;18.208;2023-08-12T02:07:05;101920.44;;;15.83;60.80
21706;BME280;11014;53.076;18.208;2023-08-12T02:09:34;101925.50;;;15.79;60.92
21706;BME280;11014;53.076;18.208;2023-08-12T02:12:03;101927.25;;;15.74;61.00
21706;BME280;11014;53.076;18.208;2023-08-12T02:14:31;101927.75;;;15.71;60.99
21706;BME280;11014;53.076;18.208;2023-08-12T02:17:00;101926.09;;;15.70;61.11
21706;BME280;11014;53.076;18.208;2023-08-12T02:19:29;101924.44;;;15.69;61.10
21706;BME280;11014;53.076;18.208;2023-08-12T02:21:57;101927.38;;;15.67;61.04
21706;BME280;11014;53.076;18.208;2023-08-12T02:24:26;101917.38;;;15.68;61.34
21706;BME280;11014;53.076;18.208;2023-08-12T02:26:54;101924.44;;;15.69;61.07
21706;BME280;11014;53.076;18.208;2023-08-12T02:29:23;101930.31;;;15.66;61.04
21706;BME280;11014;53.076;18.208;2023-08-12T02:31:52;101921.59;;;15.64;61.24
21706;BME280;11014;53.076;18.208;2023-08-12T02:34:21;101927.47;;;15.61;61.28
21706;BME280;11014;53.076;18.208;2023-08-12T02:36:50;101929.59;;;15.59;61.38
21706;BME280;11014;53.076;18.208;2023-08-12T02:39:18;101920.06;;;15.56;61.53
21706;BME280;11014;53.076;18.208;2023-08-12T02:41:47;101926.31;;;15.57;61.66
21706;BME280;11014;53.076;18.208;2023-08-12T02:44:15;101921.72;;;15.57;61.55
21706;BME280;11014;53.076;18.208;2023-08-12T02:46:44;101927.94;;;15.58;61.49
21706;BME280;11014;53.076;18.208;2023-08-12T02:49:12;101918.75;;;15.59;61.55
21706;BME280;11014;53.076;18.208;2023-08-12T02:51:41;101922.75;;;15.56;61.41
21706;BME280;11014;53.076;18.208;2023-08-12T02:54:09;101929.00;;;15.57;61.39
21706;BME280;11014;53.076;18.208;2023-08-12T02:56:38;101921.34;;;15.54;61.37
21706;BME280;11014;53.076;18.208;2023-08-12T02:59:07;101920.75;;;15.52;61.36
21706;BME280;11014;53.076;18.208;2023-08-12T03:01:35;101924.50;;;15.51;61.58
21706;BME280;11014;53.076;18.208;2023-08-12T03:04:04;101925.09;;;15.53;61.60
21706;BME280;11014;53.076;18.208;2023-08-12T03:06:32;101930.50;;;15.53;61.54
21706;BME280;11014;53.076;18.208;2023-08-12T03:09:01;101929.09;;;15.50;61.70
21706;BME280;11014;53.076;18.208;2023-08-12T03:11:30;101930.97;;;15.50;61.73
21706;BME280;11014;53.076;18.208;2023-08-12T03:14:01;101939.72;;;15.52;61.66
21706;BME280;11014;53.076;18.208;2023-08-12T03:16:29;101936.38;;;15.50;61.79
21706;BME280;11014;53.076;18.208;2023-08-12T03:18:59;101931.44;;;15.47;62.12
21706;BME280;11014;53.076;18.208;2023-08-12T03:21:27;101930.97;;;15.50;62.10
21706;BME280;11014;53.076;18.208;2023-08-12T03:23:56;101933.22;;;15.53;61.82
21706;BME280;11014;53.076;18.208;2023-08-12T03:26:24;101929.69;;;15.52;61.77
21706;BME280;11014;53.076;18.208;2023-08-12T03:28:55;101924.28;;;15.52;62.18
21706;BME280;11014;53.076;18.208;2023-08-12T03:31:24;101932.19;;;15.54;61.76
21706;BME280;11014;53.076;18.208;2023-08-12T03:33:54;101933.81;;;15.55;61.86
21706;BME280;11014;53.076;18.208;2023-08-12T03:36:22;101930.06;;;15.56;62.20
21706;BME280;11014;53.076;18.208;2023-08-12T03:38:51;101933.97;;;15.60;62.21
21706;BME280;11014;53.076;18.208;2023-08-12T03:41:23;101936.44;;;15.61;61.86
21706;BME280;11014;53.076;18.208;2023-08-12T03:43:54;101937.25;;;15.62;62.07
21706;BME280;11014;53.076;18.208;2023-08-12T03:46:23;101938.94;;;15.63;62.16
21706;BME280;11014;53.076;18.208;2023-08-12T03:48:52;101948.69;;;15.64;62.31
21706;BME280;11014;53.076;18.208;2023-08-12T03:51:21;101941.63;;;15.63;62.31
21706;BME280;11014;53.076;18.208;2023-08-12T03:53:50;101947.06;;;15.63;62.52
21706;BME280;11014;53.076;18.208;2023-08-12T03:56:18;101951.19;;;15.65;62.72
21706;BME280;11014;53.076;18.208;2023-08-12T03:58:48;101941.97;;;15.66;62.62
21706;BME280;11014;53.076;18.208;2023-08-12T04:01:16;101942.81;;;15.67;62.46
21706;BME280;11014;53.076;18.208;2023-08-12T04:03:45;101945.63;;;15.72;62.56
21706;BME280;11014;53.076;18.208;2023-08-12T04:06:14;101945.19;;;15.75;62.73
21706;BME280;11014;53.076;18.208;2023-08-12T04:08:43;101944.25;;;15.81;62.83
21706;BME280;11014;53.076;18.208;2023-08-12T04:11:11;101945.41;;;15.85;62.66
21706;BME280;11014;53.076;18.208;2023-08-12T04:13:41;101946.38;;;15.90;62.44
21706;BME280;11014;53.076;18.208;2023-08-12T04:16:12;101938.63;;;15.94;62.49
21706;BME280;11014;53.076;18.208;2023-08-12T04:18:42;101936.03;;;15.99;62.71
21706;BME280;11014;53.076;18.208;2023-08-12T04:21:10;101931.78;;;16.03;62.46
21706;BME280;11014;53.076;18.208;2023-08-12T04:23:39;101927.53;;;16.07;62.61
21706;BME280;11014;53.076;18.208;2023-08-12T04:26:08;101932.03;;;16.13;62.94
21706;BME280;11014;53.076;18.208;2023-08-12T04:28:37;101925.09;;;16.17;63.00
21706;BME280;11014;53.076;18.208;2023-08-12T04:31:07;101926.25;;;16.21;62.98
21706;BME280;11014;53.076;18.208;2023-08-12T04:33:41;101925.53;;;16.26;62.77
21706;BME280;11014;53.076;18.208;2023-08-12T04:36:11;101920.47;;;16.29;63.20
21706;BME280;11014;53.076;18.208;2023-08-12T04:38:40;101921.66;;;16.33;63.12
21706;BME280;11014;53.076;18.208;2023-08-12T04:41:10;101920.69;;;16.39;63.28
21706;BME280;11014;53.076;18.208;2023-08-12T04:43:39;101921.88;;;16.43;63.23
21706;BME280;11014;53.076;18.208;2023-08-12T04:46:08;101930.59;;;16.45;63.42
21706;BME280;11014;53.076;18.208;2023-08-12T04:48:37;101927.19;;;16.50;63.94
21706;BME280;11014;53.076;18.208;2023-08-12T04:51:06;101925.44;;;16.55;63.96
21706;BME280;11014;53.076;18.208;2023-08-12T04:53:35;101929.91;;;16.62;63.99
21706;BME280;11014;53.076;18.208;2023-08-12T04:56:03;101928.94;;;16.68;63.69
21706;BME280;11014;53.076;18.208;2023-08-12T04:58:32;101921.50;;;16.75;64.03
21706;BME280;11014;53.076;18.208;2023-08-12T05:01:01;101917.03;;;16.80;63.75
21706;BME280;11014;53.076;18.208;2023-08-12T05:03:31;101919.34;;;16.88;63.94
21706;BME280;11014;53.076;18.208;2023-08-12T05:06:00;101919.78;;;16.97;63.98
21706;BME280;11014;53.076;18.208;2023-08-12T05:08:30;101918.81;;;17.03;64.07
21706;BME280;11014;53.076;18.208;2023-08-12T05:10:59;101918.44;;;17.11;64.48
21706;BME280;11014;53.076;18.208;2023-08-12T05:13:27;101920.28;;;17.22;64.40
21706;BME280;11014;53.076;18.208;2023-08-12T05:15:57;101928.38;;;17.34;64.66
21706;BME280;11014;53.076;18.208;2023-08-12T05:18:26;101919.34;;;17.45;64.58
21706;BME280;11014;53.076;18.208;2023-08-12T05:20:56;101918.22;;;17.57;64.54
21706;BME280;11014;53.076;18.208;2023-08-12T05:23:26;101925.00;;;17.71;64.57
21706;BME280;11014;53.076;18.208;2023-08-12T05:25:55;101925.28;;;17.87;64.69
21706;BME280;11014;53.076;18.208;2023-08-12T05:28:23;101919.22;;;18.01;64.56
21706;BME280;11014;53.076;18.208;2023-08-12T05:30:52;101922.19;;;18.16;64.42
21706;BME280;11014;53.076;18.208;2023-08-12T05:33:23;101924.31;;;18.31;64.10
21706;BME280;11014;53.076;18.208;2023-08-12T05:35:52;101929.66;;;18.43;64.08
21706;BME280;11014;53.076;18.208;2023-08-12T05:38:21;101926.84;;;18.54;64.24
21706;BME280;11014;53.076;18.208;2023-08-12T05:40:49;101919.38;;;18.66;63.95
21706;BME280;11014;53.076;18.208;2023-08-12T05:43:18;101916.31;;;18.79;63.70
21706;BME280;11014;53.076;18.208;2023-08-12T05:45:47;101912.63;;;18.90;63.07
21706;BME280;11014;53.076;18.208;2023-08-12T05:48:16;101906.78;;;19.04;62.71
21706;BME280;11014;53.076;18.208;2023-08-12T05:50:46;101916.19;;;19.18;62.60
21706;BME280;11014;53.076;18.208;2023-08-12T05:53:15;101906.78;;;19.30;62.33
21706;BME280;11014;53.076;18.208;2023-08-12T05:55:44;101906.06;;;19.40;61.76
21706;BME280;11014;53.076;18.208;2023-08-12T05:58:13;101905.69;;;19.53;60.68
21706;BME280;11014;53.076;18.208;2023-08-12T06:00:42;101898.97;;;19.66;60.28
21706;BME280;11014;53.076;18.208;2023-08-12T06:03:13;101895.56;;;19.80;60.11
21706;BME280;11014;53.076;18.208;2023-08-12T06:06:08;101898.44;;;20.05;59.39
21706;BME280;11014;53.076;18.208;2023-08-12T06:08:37;101901.22;;;20.10;59.19
21706;BME280;11014;53.076;18.208;2023-08-12T06:11:06;101897.22;;;20.23;58.52
21706;BME280;11014;53.076;18.208;2023-08-12T06:13:35;101900.31;;;20.37;58.25
21706;BME280;11014;53.076;18.208;2023-08-12T06:16:03;101897.41;;;20.53;57.98
21706;BME280;11014;53.076;18.208;2023-08-12T06:18:33;101892.81;;;20.69;57.70
21706;BME280;11014;53.076;18.208;2023-08-12T06:21:01;101893.44;;;20.86;57.26
21706;BME280;11014;53.076;18.208;2023-08-12T06:23:30;101888.59;;;21.03;57.03
21706;BME280;11014;53.076;18.208;2023-08-12T06:25:59;101884.84;;;21.19;56.38
21706;BME280;11014;53.076;18.208;2023-08-12T06:28:28;101890.84;;;21.37;56.09
21706;BME280;11014;53.076;18.208;2023-08-12T06:30:56;101886.50;;;21.56;55.94
21706;BME280;11014;53.076;18.208;2023-08-12T06:33:51;101881.84;;;21.92;55.75
21706;BME280;11014;53.076;18.208;2023-08-12T06:36:35;101885.97;;;22.04;55.38
21706;BME280;11014;53.076;18.208;2023-08-12T06:39:10;101880.97;;;22.21;55.53
21706;BME280;11014;53.076;18.208;2023-08-12T06:41:43;101882.59;;;22.37;55.74
21706;BME280;11014;53.076;18.208;2023-08-12T06:45:16;101880.31;;;22.70;55.58
21706;BME280;11014;53.076;18.208;2023-08-12T06:48:19;101881.31;;;22.89;55.24
21706;BME280;11014;53.076;18.208;2023-08-12T06:50:55;101885.88;;;23.03;55.51
21706;BME280;11014;53.076;18.208;2023-08-12T06:53:28;101886.41;;;23.54;54.67
21706;BME280;11014;53.076;18.208;2023-08-12T06:56:38;101877.88;;;23.56;54.49
21706;BME280;11014;53.076;18.208;2023-08-12T06:59:22;101877.81;;;23.95;53.67
21706;BME280;11014;53.076;18.208;2023-08-12T07:01:51;101870.25;;;23.82;52.79
21706;BME280;11014;53.076;18.208;2023-08-12T07:04:19;101869.88;;;23.88;52.23
21706;BME280;11014;53.076;18.208;2023-08-12T07:06:48;101867.84;;;24.04;50.97
21706;BME280;11014;53.076;18.208;2023-08-12T07:09:18;101874.84;;;24.20;49.32
21706;BME280;11014;53.076;18.208;2023-08-12T07:11:50;101863.06;;;24.38;48.50
21706;BME280;11014;53.076;18.208;2023-08-12T07:14:18;101854.66;;;24.53;47.98
21706;BME280;11014;53.076;18.208;2023-08-12T07:16:47;101853.34;;;24.69;46.74
21706;BME280;11014;53.076;18.208;2023-08-12T07:19:19;101855.91;;;24.85;44.77
21706;BME280;11014;53.076;18.208;2023-08-12T07:21:48;101858.47;;;25.00;45.63
21706;BME280;11014;53.076;18.208;2023-08-12T07:24:17;101850.56;;;25.12;44.33
21706;BME280;11014;53.076;18.208;2023-08-12T07:26:46;101861.94;;;25.24;43.52
21706;BME280;11014;53.076;18.208;2023-08-12T07:29:15;101859.03;;;25.34;43.02
21706;BME280;11014;53.076;18.208;2023-08-12T07:31:44;101866.00;;;25.45;43.06
21706;BME280;11014;53.076;18.208;2023-08-12T07:34:12;101863.19;;;25.50;43.05
21706;BME280;11014;53.076;18.208;2023-08-12T07:36:42;101851.00;;;25.56;43.71
21706;BME280;11014;53.076;18.208;2023-08-12T07:39:10;101853.88;;;25.65;42.21
21706;BME280;11014;53.076;18.208;2023-08-12T07:41:40;101851.84;;;25.70;43.00
21706;BME280;11014;53.076;18.208;2023-08-12T07:44:11;101856.56;;;25.83;42.73
21706;BME280;11014;53.076;18.208;2023-08-12T07:46:40;101851.91;;;25.98;42.71
21706;BME280;11014;53.076;18.208;2023-08-12T07:49:10;101857.22;;;26.08;41.95
21706;BME280;11014;53.076;18.208;2023-08-12T07:51:40;101861.75;;;26.17;41.58
21706;BME280;11014;53.076;18.208;2023-08-12T07:54:08;101857.69;;;26.28;42.40
21706;BME280;11014;53.076;18.208;2023-08-12T07:56:37;101845.63;;;26.38;41.20
21706;BME280;11014;53.076;18.208;2023-08-12T07:59:07;101844.59;;;26.47;41.75
21706;BME280;11014;53.076;18.208;2023-08-12T08:01:37;101846.22;;;26.62;40.63
21706;BME280;11014;53.076;18.208;2023-08-12T08:04:09;101838.97;;;26.66;40.38
21706;BME280;11014;53.076;18.208;2023-08-12T08:06:38;101829.44;;;26.72;38.93
21706;BME280;11014;53.076;18.208;2023-08-12T08:09:09;101827.13;;;26.79;39.96
21706;BME280;11014;53.076;18.208;2023-08-12T08:11:39;101837.81;;;26.81;38.54
21706;BME280;11014;53.076;18.208;2023-08-12T08:14:23;101825.56;;;26.87;38.48
21706;BME280;11014;53.076;18.208;2023-08-12T08:16:53;101827.38;;;26.91;38.13
21706;BME280;11014;53.076;18.208;2023-08-12T08:19:47;101818.06;;;27.01;38.36
21706;BME280;11014;53.076;18.208;2023-08-12T08:22:16;101817.81;;;27.11;37.87
21706;BME280;11014;53.076;18.208;2023-08-12T08:24:45;101821.97;;;27.22;39.34
21706;BME280;11014;53.076;18.208;2023-08-12T08:27:16;101822.72;;;27.36;38.55
21706;BME280;11014;53.076;18.208;2023-08-12T08:29:44;101824.56;;;27.41;37.80
21706;BME280;11014;53.076;18.208;2023-08-12T08:32:15;101833.09;;;27.53;37.54
21706;BME280;11014;53.076;18.208;2023-08-12T08:34:45;101824.53;;;27.63;37.39
21706;BME280;11014;53.076;18.208;2023-08-12T08:37:13;101818.78;;;27.73;37.32
21706;BME280;11014;53.076;18.208;2023-08-12T08:39:42;101819.59;;;27.82;38.85
21706;BME280;11014;53.076;18.208;2023-08-12T08:42:11;101824.97;;;27.87;36.85
21706;BME280;11014;53.076;18.208;2023-08-12T08:44:54;101823.03;;;27.88;36.01
21706;BME280;11014;53.076;18.208;2023-08-12T08:47:31;101825.50;;;27.89;36.68
21706;BME280;11014;53.076;18.208;2023-08-12T08:50:00;101823.88;;;27.88;35.67
21706;BME280;11014;53.076;18.208;2023-08-12T08:52:29;101820.50;;;28.00;36.58
21706;BME280;11014;53.076;18.208;2023-08-12T08:55:00;101814.91;;;28.13;37.24
21706;BME280;11014;53.076;18.208;2023-08-12T08:57:37;101813.34;;;28.30;37.64
21706;BME280;11014;53.076;18.208;2023-08-12T09:00:16;101807.69;;;28.43;36.94
21706;BME280;11014;53.076;18.208;2023-08-12T09:02:49;101805.41;;;28.54;36.98
21706;BME280;11014;53.076;18.208;2023-08-12T09:05:20;101798.00;;;28.63;36.91
21706;BME280;11014;53.076;18.208;2023-08-12T09:07:49;101798.47;;;28.65;35.88
21706;BME280;11014;53.076;18.208;2023-08-12T09:10:20;101794.06;;;28.64;35.17
21706;BME280;11014;53.076;18.208;2023-08-12T09:12:57;101792.63;;;28.75;35.80
21706;BME280;11014;53.076;18.208;2023-08-12T09:15:25;101793.44;;;28.84;35.56
21706;BME280;11014;53.076;18.208;2023-08-12T09:18:20;101786.75;;;29.02;34.07
21706;BME280;11014;53.076;18.208;2023-08-12T09:20:53;101786.44;;;28.95;34.55
21706;BME280;11014;53.076;18.208;2023-08-12T09:23:22;101784.81;;;28.94;35.40
21706;BME280;11014;53.076;18.208;2023-08-12T09:25:51;101785.63;;;29.03;35.68
21706;BME280;11014;53.076;18.208;2023-08-12T09:28:21;101780.91;;;29.12;35.54
21706;BME280;11014;53.076;18.208;2023-08-12T09:30:58;101780.59;;;29.22;35.20
21706;BME280;11014;53.076;18.208;2023-08-12T09:33:27;101770.66;;;29.30;34.96
21706;BME280;11014;53.076;18.208;2023-08-12T09:35:59;101784.19;;;29.31;33.81
21706;BME280;11014;53.076;18.208;2023-08-12T09:38:31;101782.84;;;29.37;34.38
21706;BME280;11014;53.076;18.208;2023-08-12T09:44:38;101775.63;;;29.54;33.95
21706;BME280;11014;53.076;18.208;2023-08-12T09:47:10;101763.97;;;29.40;33.95
21706;BME280;11014;53.076;18.208;2023-08-12T09:50:04;101760.16;;;29.61;33.65
21706;BME280;11014;53.076;18.208;2023-08-12T09:52:33;101764.72;;;29.57;34.29
21706;BME280;11014;53.076;18.208;2023-08-12T09:55:04;101754.75;;;29.65;33.33
21706;BME280;11014;53.076;18.208;2023-08-12T09:57:35;101745.59;;;29.73;33.24
21706;BME280;11014;53.076;18.208;2023-08-12T10:00:06;101747.22;;;29.82;34.14
21706;BME280;11014;53.076;18.208;2023-08-12T10:02:48;101744.22;;;29.96;33.79
21706;BME280;11014;53.076;18.208;2023-08-12T10:05:33;101742.22;;;30.05;33.18
21706;BME280;11014;53.076;18.208;2023-08-12T10:08:03;101740.94;;;30.03;32.60
21706;BME280;11014;53.076;18.208;2023-08-12T10:10:35;101743.69;;;30.03;32.64
21706;BME280;11014;53.076;18.208;2023-08-12T10:13:05;101745.47;;;30.07;34.29
21706;BME280;11014;53.076;18.208;2023-08-12T10:15:36;101737.91;;;30.16;33.87
21706;BME280;11014;53.076;18.208;2023-08-12T10:18:10;101731.31;;;30.29;33.96
21706;BME280;11014;53.076;18.208;2023-08-12T10:20:39;101738.78;;;30.37;34.37
21706;BME280;11014;53.076;18.208;2023-08-12T10:23:16;101736.56;;;30.51;34.58
21706;BME280;11014;53.076;18.208;2023-08-12T10:25:47;101736.88;;;30.50;33.25
21706;BME280;11014;53.076;18.208;2023-08-12T10:31:46;101734.28;;;30.66;32.66
21706;BME280;11014;53.076;18.208;2023-08-12T10:34:24;101732.03;;;30.68;31.82
21706;BME280;11014;53.076;18.208;2023-08-12T10:37:30;101726.72;;;30.75;32.33
21706;BME280;11014;53.076;18.208;2023-08-12T10:40:22;101723.72;;;30.80;31.42
21706;BME280;11014;53.076;18.208;2023-08-12T10:42:51;101726.59;;;30.71;33.23
21706;BME280;11014;53.076;18.208;2023-08-12T10:46:02;101719.47;;;30.82;31.78
21706;BME280;11014;53.076;18.208;2023-08-12T10:48:31;101720.97;;;30.80;33.64
21706;BME280;11014;53.076;18.208;2023-08-12T10:51:01;101713.84;;;30.91;33.68
21706;BME280;11014;53.076;18.208;2023-08-12T10:53:32;101711.16;;;31.03;31.70
21706;BME280;11014;53.076;18.208;2023-08-12T10:56:05;101706.34;;;31.12;31.22
21706;BME280;11014;53.076;18.208;2023-08-12T10:58:47;101702.38;;;31.01;31.19
21706;BME280;11014;53.076;18.208;2023-08-12T11:01:19;101706.97;;;30.97;32.19
21706;BME280;11014;53.076;18.208;2023-08-12T11:03:51;101708.69;;;31.01;31.65
21706;BME280;11014;53.076;18.208;2023-08-12T11:06:37;101702.97;;;31.06;31.66
21706;BME280;11014;53.076;18.208;2023-08-12T11:09:16;101697.06;;;31.08;32.60
21706;BME280;11014;53.076;18.208;2023-08-12T11:11:45;101689.44;;;31.17;33.48
21706;BME280;11014;53.076;18.208;2023-08-12T11:14:25;101688.31;;;31.30;32.34
21706;BME280;11014;53.076;18.208;2023-08-12T11:16:53;101687.31;;;31.47;32.82
21706;BME280;11014;53.076;18.208;2023-08-12T11:19:22;101679.13;;;31.62;31.80
21706;BME280;11014;53.076;18.208;2023-08-12T11:21:51;101670.78;;;31.75;31.28
21706;BME280;11014;53.076;18.208;2023-08-12T11:24:21;101664.75;;;31.85;32.62
21706;BME280;11014;53.076;18.208;2023-08-12T11:26:50;101672.97;;;31.93;31.64
21706;BME280;11014;53.076;18.208;2023-08-12T11:29:19;101664.25;;;31.95;31.72
21706;BME280;11014;53.076;18.208;2023-08-12T11:31:47;101661.25;;;32.00;31.91
21706;BME280;11014;53.076;18.208;2023-08-12T11:34:19;101664.97;;;32.44;31.45
21706;BME280;11014;53.076;18.208;2023-08-12T11:36:48;101666.81;;;32.24;30.83
21706;BME280;11014;53.076;18.208;2023-08-12T11:39:24;101663.78;;;32.29;31.42
21706;BME280;11014;53.076;18.208;2023-08-12T11:41:52;101660.50;;;32.27;30.67
21706;BME280;11014;53.076;18.208;2023-08-12T11:44:22;101651.03;;;32.28;30.46
21706;BME280;11014;53.076;18.208;2023-08-12T11:46:51;101645.66;;;32.35;32.17
21706;BME280;11014;53.076;18.208;2023-08-12T11:49:20;101640.31;;;32.42;31.16
21706;BME280;11014;53.076;18.208;2023-08-12T11:51:49;101643.78;;;32.51;30.05
21706;BME280;11014;53.076;18.208;2023-08-12T11:54:18;101631.00;;;32.50;30.47
21706;BME280;11014;53.076;18.208;2023-08-12T11:56:48;101638.22;;;32.51;30.09
21706;BME280;11014;53.076;18.208;2023-08-12T11:59:23;101631.53;;;32.40;29.36
21706;BME280;11014;53.076;18.208;2023-08-12T12:01:52;101632.88;;;32.46;30.88
21706;BME280;11014;53.076;18.208;2023-08-12T12:04:26;101631.59;;;32.56;29.70
21706;BME280;11014;53.076;18.208;2023-08-12T12:07:23;101626.34;;;32.82;29.48
21706;BME280;11014;53.076;18.208;2023-08-12T12:10:02;101619.34;;;32.72;31.39
21706;BME280;11014;53.076;18.208;2023-08-12T12:12:33;101621.88;;;32.77;29.51
21706;BME280;11014;53.076;18.208;2023-08-12T12:15:04;101621.91;;;32.65;29.02
21706;BME280;11014;53.076;18.208;2023-08-12T12:17:38;101612.41;;;32.66;29.27
21706;BME280;11014;53.076;18.208;2023-08-12T12:20:08;101615.16;;;32.78;29.72
21706;BME280;11014;53.076;18.208;2023-08-12T12:22:42;101615.28;;;33.13;28.98
21706;BME280;11014;53.076;18.208;2023-08-12T12:25:21;101614.88;;;33.96;27.29
21706;BME280;11014;53.076;18.208;2023-08-12T12:27:50;101617.94;;;35.06;26.00
21706;BME280;11014;53.076;18.208;2023-08-12T12:30:25;101614.38;;;36.41;26.15
21706;BME280;11014;53.076;18.208;2023-08-12T12:33:14;101598.72;;;37.61;24.77
21706;BME280;11014;53.076;18.208;2023-08-12T12:35:42;101603.22;;;38.59;23.84
21706;BME280;11014;53.076;18.208;2023-08-12T12:38:26;101593.66;;;39.44;23.46
21706;BME280;11014;53.076;18.208;2023-08-12T12:41:01;101580.09;;;40.40;21.93
21706;BME280;11014;53.076;18.208;2023-08-12T12:43:29;101579.78;;;41.37;21.54
21706;BME280;11014;53.076;18.208;2023-08-12T12:45:58;101580.75;;;42.29;20.94
21706;BME280;11014;53.076;18.208;2023-08-12T12:48:52;101574.03;;;43.23;18.67
21706;BME280;11014;53.076;18.208;2023-08-12T12:51:21;101565.78;;;43.32;18.46
21706;BME280;11014;53.076;18.208;2023-08-12T12:53:50;101569.38;;;43.36;17.71
21706;BME280;11014;53.076;18.208;2023-08-12T12:56:19;101566.34;;;43.46;18.16
21706;BME280;11014;53.076;18.208;2023-08-12T12:58:47;101577.22;;;43.67;17.98
21706;BME280;11014;53.076;18.208;2023-08-12T13:01:16;101569.16;;;44.05;17.39
21706;BME280;11014;53.076;18.208;2023-08-12T13:03:46;101566.09;;;44.36;17.67
21706;BME280;11014;53.076;18.208;2023-08-12T13:06:15;101552.72;;;44.88;17.81
21706;BME280;11014;53.076;18.208;2023-08-12T13:08:46;101554.56;;;45.11;16.38
21706;BME280;11014;53.076;18.208;2023-08-12T13:11:14;101557.34;;;45.72;17.35